createdAt,value
2022-08-21T00:01:56.186Z,99006.88
2022-08-21T00:04:29.232Z,99021.78
2022-08-21T00:06:58.221Z,99028.72
2022-08-21T00:09:26.459Z,99031.59
2022-08-21T00:11:54.478Z,99035.28
2022-08-21T00:14:22.632Z,99025.47
2022-08-21T00:16:52.176Z,99011.38
2022-08-21T00:19:25.823Z,99004.81
2022-08-21T00:21:54.287Z,99014.44
2022-08-21T00:24:23.489Z,99008.31
2022-08-21T00:26:52.601Z,99013.00
2022-08-21T00:29:21.080Z,99015.66
2022-08-21T00:31:49.090Z,98999.72
2022-08-21T00:34:20.990Z,98996.25
2022-08-21T00:36:49.054Z,98997.69
2022-08-21T00:39:17.193Z,99003.00
2022-08-21T00:41:45.878Z,99002.97
2022-08-21T00:44:16.576Z,98997.47
2022-08-21T00:46:45.643Z,98989.06
2022-08-21T00:49:14.299Z,98969.03
2022-08-21T00:51:48.714Z,98971.94
2022-08-21T00:54:18.960Z,98974.16
2022-08-21T00:56:50.102Z,98987.84
2022-08-21T00:59:21.334Z,98990.31
2022-08-21T01:01:49.693Z,98995.63
2022-08-21T01:04:18.287Z,98980.28
2022-08-21T01:06:47.702Z,98990.72
2022-08-21T01:09:16.534Z,98990.31
2022-08-21T01:11:44.957Z,98989.91
2022-08-21T01:14:13.949Z,98979.25
2022-08-21T01:16:45.321Z,98957.84
2022-08-21T01:19:15.127Z,98951.06
2022-08-21T01:21:44.929Z,98950.84
2022-08-21T01:24:14.043Z,98959.03
2022-08-21T01:26:43.068Z,98945.72
2022-08-21T01:29:18.898Z,98941.41
2022-08-21T01:31:46.970Z,98946.72
2022-08-21T01:34:16.928Z,98937.47
2022-08-21T01:36:48.005Z,98938.69
2022-08-21T01:39:17.040Z,98931.19
2022-08-21T01:41:45.665Z,98939.53
2022-08-21T01:44:13.719Z,98941.41
2022-08-21T01:46:42.282Z,98946.53
2022-08-21T01:49:10.633Z,98943.03
2022-08-21T01:51:38.747Z,98949.97
2022-08-21T01:54:08.115Z,98956.94
2022-08-21T01:56:39.467Z,98969.41
2022-08-21T01:59:07.637Z,98984.97
2022-08-21T02:01:35.990Z,99007.06
2022-08-21T02:04:04.965Z,99026.06
2022-08-21T02:06:33.045Z,99041.00
2022-08-21T02:09:01.165Z,99037.53
2022-08-21T02:11:30.562Z,99045.50
2022-08-21T02:13:58.589Z,99038.56
2022-08-21T02:16:26.662Z,99030.34
2022-08-21T02:18:54.802Z,99020.94
2022-08-21T02:21:22.788Z,99025.41
2022-08-21T02:23:50.764Z,99019.91
2022-08-21T02:26:18.808Z,99027.25
2022-08-21T02:28:48.268Z,99032.63
2022-08-21T02:31:16.573Z,99037.94
2022-08-21T02:33:44.741Z,99048.56
2022-08-21T02:36:13.961Z,99051.84
2022-08-21T02:38:44.000Z,99051.25
2022-08-21T02:41:14.748Z,99057.38
2022-08-21T02:43:43.065Z,99062.06
2022-08-21T02:46:14.543Z,99059.41
2022-08-21T02:48:42.929Z,99058.81
2022-08-21T02:51:13.730Z,99053.50
2022-08-21T02:53:42.551Z,99057.34
2022-08-21T02:56:12.358Z,99043.88
2022-08-21T02:58:45.635Z,99055.69
2022-08-21T03:01:15.586Z,99041.78
2022-08-21T03:03:46.840Z,99043.81
2022-08-21T03:06:17.884Z,99045.03
2022-08-21T03:08:46.907Z,99043.00
2022-08-21T03:11:15.486Z,99033.19
2022-08-21T03:13:44.439Z,99044.63
2022-08-21T03:16:14.532Z,99048.28
2022-08-21T03:18:42.643Z,99046.66
2022-08-21T03:21:11.740Z,99065.47
2022-08-21T03:23:40.797Z,99060.63
2022-08-21T03:26:09.994Z,99046.88
2022-08-21T03:28:39.026Z,99053.00
2022-08-21T03:31:07.469Z,99038.88
2022-08-21T03:33:37.004Z,99045.03
2022-08-21T03:36:11.510Z,99041.97
2022-08-21T03:38:40.147Z,99047.91
2022-08-21T03:41:09.732Z,99052.03
2022-08-21T03:43:39.537Z,99034.47
2022-08-21T03:46:08.228Z,99059.00
2022-08-21T03:48:39.153Z,99056.75
2022-08-21T03:51:08.460Z,99060.78
2022-08-21T03:53:37.400Z,99030.09
2022-08-21T03:56:06.675Z,99061.00
2022-08-21T03:58:34.845Z,99066.13
2022-08-21T04:01:05.710Z,99068.19
2022-08-21T04:03:34.127Z,99063.09
2022-08-21T04:06:03.537Z,99060.19
2022-08-21T04:08:31.750Z,99059.56
2022-08-21T04:11:00.887Z,99065.88
2022-08-21T04:13:30.170Z,99069.03
2022-08-21T04:15:59.097Z,99075.13
2022-08-21T04:18:27.212Z,99069.38
2022-08-21T04:20:56.345Z,99076.97
2022-08-21T04:23:25.918Z,99060.38
2022-08-21T04:25:55.063Z,99068.97
2022-08-21T04:28:23.551Z,99071.63
2022-08-21T04:30:57.566Z,99073.03
2022-08-21T04:33:26.301Z,99071.25
2022-08-21T04:35:54.435Z,99075.75
2022-08-21T04:38:22.651Z,99054.09
2022-08-21T04:40:52.782Z,99067.31
2022-08-21T04:43:21.607Z,99049.75
2022-08-21T04:45:50.471Z,99062.63
2022-08-21T04:48:22.073Z,99037.06
2022-08-21T04:50:54.323Z,99057.72
2022-08-21T04:53:26.699Z,99048.72
2022-08-21T04:55:58.564Z,99040.97
2022-08-21T04:58:28.605Z,99039.47
2022-08-21T05:00:58.516Z,99033.53
2022-08-21T05:03:26.814Z,99031.09
2022-08-21T05:05:55.199Z,99016.19
2022-08-21T05:08:27.749Z,99038.91
2022-08-21T05:11:00.480Z,99034.00
2022-08-21T05:13:29.499Z,99041.78
2022-08-21T05:15:57.886Z,99044.66
2022-08-21T05:18:25.995Z,99033.44
2022-08-21T05:20:53.935Z,99030.34
2022-08-21T05:23:22.239Z,99032.38
2022-08-21T05:25:50.397Z,99022.56
2022-08-21T05:28:20.133Z,99016.44
2022-08-21T05:30:48.436Z,99023.63
2022-08-21T05:33:16.794Z,99024.19
2022-08-21T05:35:44.754Z,99017.22
2022-08-21T05:38:16.653Z,99021.78
2022-08-21T05:40:46.903Z,99027.31
2022-08-21T05:43:15.358Z,99024.25
2022-08-21T05:45:45.209Z,99024.25
2022-08-21T05:48:16.198Z,99040.59
2022-08-21T05:50:45.036Z,99037.31
2022-08-21T05:53:13.519Z,99041.63
2022-08-21T05:55:45.703Z,99023.63
2022-08-21T05:58:14.293Z,99036.09
2022-08-21T06:00:42.492Z,99036.69
2022-08-21T06:03:15.406Z,99041.41
2022-08-21T06:05:43.620Z,99048.38
2022-08-21T06:08:11.848Z,99055.94
2022-08-21T06:10:40.179Z,99047.56
2022-08-21T06:13:08.254Z,99057.34
2022-08-21T06:15:36.582Z,99060.03
2022-08-21T06:18:05.219Z,99062.47
2022-08-21T06:20:35.003Z,99047.34
2022-08-21T06:23:03.892Z,99037.31
2022-08-21T06:25:33.362Z,99055.31
2022-08-21T06:28:07.779Z,99061.47
2022-08-21T06:30:37.530Z,99057.38
2022-08-21T06:33:07.307Z,99051.44
2022-08-21T06:35:37.323Z,99043.88
2022-08-21T06:38:10.069Z,99055.53
2022-08-21T06:40:43.981Z,99037.97
2022-08-21T06:43:17.113Z,99034.03
2022-08-21T06:45:46.066Z,99035.47
2022-08-21T06:48:18.924Z,99039.19
2022-08-21T06:50:49.573Z,99046.75
2022-08-21T06:53:20.433Z,99031.59
2022-08-21T06:55:49.038Z,99007.06
2022-08-21T06:58:18.245Z,99025.06
2022-08-21T07:00:48.671Z,99023.22
2022-08-21T07:03:25.533Z,99017.28
2022-08-21T07:05:55.519Z,99032.81
2022-08-21T07:08:23.732Z,99029.94
2022-08-21T07:10:52.219Z,99025.22
2022-08-21T07:13:20.289Z,99025.03
2022-08-21T07:15:48.431Z,99022.56
2022-08-21T07:18:17.077Z,99012.38
2022-08-21T07:20:45.616Z,99011.75
2022-08-21T07:23:30.194Z,99012.72
2022-08-21T07:25:58.217Z,99027.06
2022-08-21T07:28:26.283Z,99029.09
2022-08-21T07:30:57.112Z,99024.56
2022-08-21T07:33:25.290Z,99027.22
2022-08-21T07:35:53.319Z,99009.84
2022-08-21T07:38:24.270Z,99013.50
2022-08-21T07:40:53.531Z,98992.63
2022-08-21T07:43:22.661Z,99008.75
2022-08-21T07:45:51.763Z,99004.47
2022-08-21T07:48:19.710Z,99010.81
2022-08-21T07:50:47.911Z,99005.25
2022-08-21T07:53:16.011Z,99009.38
2022-08-21T07:55:45.461Z,99009.97
2022-08-21T07:58:13.708Z,99018.44
2022-08-21T08:00:42.665Z,99009.97
2022-08-21T08:03:10.632Z,99019.38
2022-08-21T08:05:40.203Z,99024.09
2022-08-21T08:08:08.460Z,99013.81
2022-08-21T08:10:36.906Z,99023.00
2022-08-21T08:13:06.484Z,99015.41
2022-08-21T08:15:39.262Z,99015.00
2022-08-21T08:18:07.338Z,99011.56
2022-08-21T08:20:35.684Z,99004.97
2022-08-21T08:23:04.002Z,99002.03
2022-08-21T08:25:36.315Z,98981.56
2022-08-21T08:28:17.430Z,99001.03
2022-08-21T08:30:46.916Z,99002.06
2022-08-21T08:33:15.053Z,98999.41
2022-08-21T08:35:43.905Z,99004.31
2022-08-21T08:38:11.915Z,99001.84
2022-08-21T08:40:45.080Z,98991.34
2022-08-21T08:43:15.411Z,98990.44
2022-08-21T08:45:50.355Z,98987.63
2022-08-21T08:48:41.589Z,98981.94
2022-08-21T08:51:17.143Z,98988.81
2022-08-21T08:53:52.752Z,98981.69
2022-08-21T08:56:29.427Z,98980.22
2022-08-21T08:59:04.067Z,98979.81
2022-08-21T09:01:36.687Z,98979.09
2022-08-21T09:04:06.786Z,98977.63
2022-08-21T09:06:45.359Z,98961.00
2022-08-21T09:09:31.104Z,98971.78
2022-08-21T09:12:04.294Z,98972.59
2022-08-21T09:17:21.583Z,98970.22
2022-08-21T09:20:05.515Z,98964.91
2022-08-21T09:22:41.686Z,98966.63
2022-08-21T09:25:17.574Z,98961.78
2022-08-21T09:27:45.673Z,98959.72
2022-08-21T09:30:15.465Z,98959.00
2022-08-21T09:32:43.885Z,98952.91
2022-08-21T09:35:14.277Z,98955.28
2022-08-21T09:37:54.249Z,98940.56
2022-08-21T09:40:34.238Z,98948.41
2022-08-21T09:43:05.044Z,98939.81
2022-08-21T09:45:36.208Z,98930.41
2022-08-21T09:48:16.459Z,98934.63
2022-08-21T09:50:45.513Z,98937.53
2022-08-21T09:53:20.457Z,98943.94
2022-08-21T09:56:11.860Z,98940.97
2022-08-21T09:58:42.755Z,98940.50
2022-08-21T10:01:16.462Z,98949.69
2022-08-21T10:03:44.601Z,98956.97
2022-08-21T10:06:22.620Z,98946.53
2022-08-21T10:08:50.612Z,98955.00
2022-08-21T10:11:26.107Z,98947.97
2022-08-21T10:14:03.370Z,98955.97
2022-08-21T10:16:44.820Z,98954.22
2022-08-21T10:19:27.661Z,98955.19
2022-08-21T10:22:03.207Z,98951.25
2022-08-21T10:24:34.467Z,98954.72
2022-08-21T10:27:17.341Z,98949.25
2022-08-21T10:29:53.285Z,98944.53
2022-08-21T10:32:34.166Z,98935.31
2022-08-21T10:35:08.976Z,98948.34
2022-08-21T10:37:48.304Z,98950.84
2022-08-21T10:40:29.731Z,98951.19
2022-08-21T10:43:11.556Z,98953.09
2022-08-21T10:45:51.211Z,98952.06
2022-08-21T10:48:30.021Z,98953.06
2022-08-21T10:51:05.919Z,98957.91
2022-08-21T10:53:52.662Z,98960.19
2022-08-21T10:56:24.490Z,98941.38
2022-08-21T10:59:10.221Z,98958.44
2022-08-21T11:01:48.902Z,98952.31
2022-08-21T11:04:26.325Z,98953.81
2022-08-21T11:07:17.161Z,98963.81
2022-08-21T11:09:49.972Z,98960.22
2022-08-21T11:12:26.245Z,98955.72
2022-08-21T11:15:02.868Z,98959.44
2022-08-21T11:17:37.300Z,98959.44
2022-08-21T11:20:12.411Z,98948.47
2022-08-21T11:22:46.121Z,98947.28
2022-08-21T11:25:22.315Z,98943.72
2022-08-21T11:27:56.804Z,98932.94
2022-08-21T11:30:29.379Z,98948.19
2022-08-21T11:33:15.316Z,98942.25
2022-08-21T11:35:51.306Z,98938.50
2022-08-21T11:38:31.047Z,98939.25
2022-08-21T11:41:14.778Z,98934.28
2022-08-21T11:43:45.081Z,98937.00
2022-08-21T11:46:23.040Z,98931.09
2022-08-21T11:49:04.483Z,98934.75
2022-08-21T11:51:38.900Z,98927.41
2022-08-21T11:54:18.597Z,98927.38
2022-08-21T11:56:52.785Z,98926.34
2022-08-21T11:59:26.098Z,98926.69
2022-08-21T12:01:55.815Z,98921.63
2022-08-21T12:04:29.617Z,98926.56
2022-08-21T12:07:12.082Z,98911.41
2022-08-21T12:09:41.219Z,98922.69
2022-08-21T12:12:14.156Z,98913.69
2022-08-21T12:14:44.743Z,98916.03
2022-08-21T12:17:21.165Z,98910.13
2022-08-21T12:20:00.504Z,98906.44
2022-08-21T12:22:42.038Z,98904.91
2022-08-21T12:25:14.582Z,98902.59
2022-08-21T12:27:48.287Z,98901.09
2022-08-21T12:30:27.376Z,98893.53
2022-08-21T12:33:01.684Z,98893.75
2022-08-21T12:35:35.782Z,98896.41
2022-08-21T12:38:16.882Z,98893.78
2022-08-21T12:40:51.039Z,98893.91
2022-08-21T12:43:28.335Z,98883.09
2022-08-21T12:45:56.421Z,98873.72
2022-08-21T12:48:30.952Z,98885.69
2022-08-21T12:51:08.389Z,98871.44
2022-08-21T12:53:46.623Z,98872.50
2022-08-21T12:56:17.138Z,98876.72
2022-08-21T12:58:49.364Z,98864.94
2022-08-21T13:01:25.664Z,98852.59
2022-08-21T13:04:04.653Z,98863.50
2022-08-21T13:06:40.168Z,98862.66
2022-08-21T13:09:12.989Z,98867.59
2022-08-21T13:11:42.323Z,98866.94
2022-08-21T13:14:19.793Z,98863.09
2022-08-21T13:16:47.931Z,98875.53
2022-08-21T13:19:23.944Z,98861.84
2022-08-21T13:21:53.376Z,98870.03
2022-08-21T13:24:41.893Z,98872.69
2022-08-21T13:27:23.204Z,98869.97
2022-08-21T13:30:03.879Z,98857.97
2022-08-21T13:32:34.263Z,98861.13
2022-08-21T13:35:11.151Z,98865.28
2022-08-21T13:37:42.836Z,98863.44
2022-08-21T13:40:17.035Z,98862.03
2022-08-21T13:42:47.544Z,98858.22
2022-08-21T13:45:19.380Z,98859.28
2022-08-21T13:47:49.818Z,98862.06
2022-08-21T13:50:20.434Z,98857.66
2022-08-21T13:52:59.126Z,98856.13
2022-08-21T13:55:38.573Z,98856.59
2022-08-21T13:58:07.341Z,98858.59
2022-08-21T14:00:38.451Z,98858.81
2022-08-21T14:03:09.985Z,98853.34
2022-08-21T14:05:45.460Z,98851.38
2022-08-21T14:08:17.257Z,98849.59
2022-08-21T14:10:53.717Z,98850.91
2022-08-21T14:13:43.374Z,98854.16
2022-08-21T14:16:21.486Z,98843.47
2022-08-21T14:18:53.427Z,98845.00
2022-08-21T14:21:35.254Z,98834.22
2022-08-21T14:24:11.430Z,98829.03
2022-08-21T14:26:48.311Z,98826.34
2022-08-21T14:29:18.637Z,98824.19
2022-08-21T14:31:52.859Z,98817.16
2022-08-21T14:34:21.194Z,98816.44
2022-08-21T14:36:50.567Z,98819.53
2022-08-21T14:39:18.739Z,98821.63
2022-08-21T14:41:49.574Z,98820.00
2022-08-21T14:44:19.431Z,98819.34
2022-08-21T14:46:56.346Z,98821.31
2022-08-21T14:49:28.135Z,98809.94
2022-08-21T14:51:58.642Z,98809.63
2022-08-21T14:54:30.817Z,98793.66
2022-08-21T14:57:08.876Z,98782.78
2022-08-21T14:59:41.241Z,98791.44
2022-08-21T15:02:10.853Z,98815.56
2022-08-21T15:04:39.886Z,98809.16
2022-08-21T15:07:08.119Z,98809.88
2022-08-21T15:09:38.246Z,98800.47
2022-08-21T15:12:09.200Z,98806.13
2022-08-21T15:14:41.173Z,98786.50
2022-08-21T15:17:11.562Z,98810.50
2022-08-21T15:19:40.762Z,98802.38
2022-08-21T15:22:18.886Z,98803.22
2022-08-21T15:24:55.916Z,98805.22
2022-08-21T15:27:25.285Z,98803.34
2022-08-21T15:29:55.320Z,98795.13
2022-08-21T15:32:25.823Z,98802.00
2022-08-21T15:34:55.123Z,98785.03
2022-08-21T15:37:24.218Z,98786.66
2022-08-21T15:39:53.812Z,98785.22
2022-08-21T15:42:23.204Z,98775.47
2022-08-21T15:44:53.982Z,98777.09
2022-08-21T15:47:25.904Z,98757.25
2022-08-21T15:49:54.117Z,98762.59
2022-08-21T15:52:24.861Z,98765.09
2022-08-21T15:54:53.141Z,98768.78
2022-08-21T15:57:23.098Z,98759.91
2022-08-21T15:59:55.621Z,98756.34
2022-08-21T16:02:26.497Z,98761.91
2022-08-21T16:04:55.132Z,98757.00
2022-08-21T16:07:23.227Z,98760.16
2022-08-21T16:09:51.587Z,98738.63
2022-08-21T16:12:24.953Z,98748.72
2022-08-21T16:14:55.594Z,98746.34
2022-08-21T16:17:27.146Z,98745.91
2022-08-21T16:19:55.187Z,98743.41
2022-08-21T16:22:23.226Z,98745.16
2022-08-21T16:24:51.326Z,98739.34
2022-08-21T16:27:19.793Z,98743.03
2022-08-21T16:29:48.412Z,98749.88
2022-08-21T16:32:21.000Z,98745.25
2022-08-21T16:34:50.607Z,98734.53
2022-08-21T16:37:24.136Z,98746.28
2022-08-21T16:39:53.377Z,98748.84
2022-08-21T16:42:25.974Z,98752.56
2022-08-21T16:44:55.630Z,98745.38
2022-08-21T16:47:26.414Z,98750.00
2022-08-21T16:49:55.388Z,98743.25
2022-08-21T16:52:23.487Z,98736.88
2022-08-21T16:54:52.666Z,98733.09
2022-08-21T16:57:20.861Z,98742.38
2022-08-21T16:59:49.163Z,98732.38
2022-08-21T17:02:29.800Z,98715.88
2022-08-21T17:04:58.329Z,98730.63
2022-08-21T17:07:26.673Z,98733.41
2022-08-21T17:09:54.800Z,98730.19
2022-08-21T17:12:23.161Z,98736.13
2022-08-21T17:14:51.176Z,98739.03
2022-08-21T17:17:20.258Z,98708.16
2022-08-21T17:19:49.691Z,98754.59
2022-08-21T17:22:17.683Z,98752.84
2022-08-21T17:24:45.933Z,98752.97
2022-08-21T17:27:14.019Z,98756.09
2022-08-21T17:29:42.451Z,98761.44
2022-08-21T17:32:13.321Z,98760.16
2022-08-21T17:34:41.896Z,98754.38
2022-08-21T17:37:11.408Z,98753.34
2022-08-21T17:39:39.533Z,98755.84
2022-08-21T17:42:12.281Z,98746.09
2022-08-21T17:44:41.756Z,98748.41
2022-08-21T17:47:11.418Z,98758.34
2022-08-21T17:49:39.530Z,98770.75
2022-08-21T17:52:08.651Z,98769.41
2022-08-21T17:54:40.975Z,98764.78
2022-08-21T17:57:16.303Z,98755.03
2022-08-21T17:59:44.358Z,98773.97
2022-08-21T18:02:20.024Z,98770.56
2022-08-21T18:04:50.414Z,98770.31
2022-08-21T18:07:31.888Z,98789.16
2022-08-21T18:10:03.039Z,98792.66
2022-08-21T18:12:31.929Z,98794.63
2022-08-21T18:15:00.980Z,98793.38
2022-08-21T18:17:32.813Z,98785.69
2022-08-21T18:20:01.998Z,98802.41
2022-08-21T18:22:30.182Z,98804.06
2022-08-21T18:24:58.242Z,98805.13
2022-08-21T18:27:29.794Z,98794.13
2022-08-21T18:30:00.274Z,98776.38
2022-08-21T18:32:30.860Z,98803.09
2022-08-21T18:35:03.769Z,98802.22
2022-08-21T18:37:32.101Z,98801.41
2022-08-21T18:40:02.386Z,98794.19
2022-08-21T18:42:35.749Z,98789.88
2022-08-21T18:45:08.027Z,98792.41
2022-08-21T18:47:42.499Z,98789.16
2022-08-21T18:50:14.290Z,98798.19
2022-08-21T18:52:52.641Z,98796.84
2022-08-21T18:55:23.135Z,98794.19
2022-08-21T18:57:55.261Z,98794.19
2022-08-21T19:00:26.342Z,98792.91
2022-08-21T19:02:54.997Z,98796.38
2022-08-21T19:05:25.384Z,98796.84
2022-08-21T19:07:55.168Z,98805.13
2022-08-21T19:13:17.577Z,98808.22
2022-08-21T19:15:49.983Z,98810.44
2022-08-21T19:18:21.365Z,98812.38
2022-08-21T19:20:52.480Z,98809.28
2022-08-21T19:23:21.182Z,98806.53
2022-08-21T19:26:01.147Z,98798.00
2022-08-21T19:28:33.457Z,98805.44
2022-08-21T19:31:10.109Z,98800.09
2022-08-21T19:33:44.310Z,98809.13
2022-08-21T19:36:14.062Z,98810.09
2022-08-21T19:38:42.786Z,98810.91
2022-08-21T19:41:13.446Z,98800.81
2022-08-21T19:43:46.392Z,98807.56
2022-08-21T19:46:20.965Z,98806.09
2022-08-21T19:48:48.983Z,98806.38
2022-08-21T19:51:17.070Z,98805.94
2022-08-21T19:53:45.498Z,98800.84
2022-08-21T19:56:23.738Z,98805.50
2022-08-21T19:58:56.067Z,98804.63
2022-08-21T20:01:26.694Z,98803.94
2022-08-21T20:03:57.342Z,98806.91
2022-08-21T20:06:26.362Z,98800.63
2022-08-21T20:08:56.103Z,98818.22
2022-08-21T20:11:31.294Z,98825.13
2022-08-21T20:14:02.126Z,98815.84
2022-08-21T20:16:32.329Z,98810.63
2022-08-21T20:19:03.212Z,98801.59
2022-08-21T20:21:31.718Z,98811.34
2022-08-21T20:27:06.148Z,98821.19
2022-08-21T20:29:39.333Z,98816.28
2022-08-21T20:32:12.112Z,98817.72
2022-08-21T20:34:40.726Z,98823.66
2022-08-21T20:37:09.416Z,98826.75
2022-08-21T20:39:37.939Z,98828.88
2022-08-21T20:42:07.137Z,98819.03
2022-08-21T20:44:37.561Z,98818.44
2022-08-21T20:47:15.845Z,98822.97
2022-08-21T20:49:48.659Z,98817.63
2022-08-21T20:52:21.129Z,98814.41
2022-08-21T20:54:53.960Z,98815.81
2022-08-21T20:57:31.276Z,98819.19
2022-08-21T21:00:04.061Z,98813.63
2022-08-21T21:02:48.160Z,98814.84
2022-08-21T21:05:21.290Z,98817.88
2022-08-21T21:07:58.646Z,98814.84
2022-08-21T21:10:32.616Z,98817.50
2022-08-21T21:13:06.733Z,98815.66
2022-08-21T21:15:37.899Z,98820.16
2022-08-21T21:18:16.793Z,98819.63
2022-08-21T21:20:51.106Z,98819.28
2022-08-21T21:23:24.594Z,98821.09
2022-08-21T21:26:01.266Z,98823.28
2022-08-21T21:28:40.757Z,98808.22
2022-08-21T21:31:12.824Z,98818.91
2022-08-21T21:33:42.111Z,98827.84
2022-08-21T21:36:20.540Z,98822.84
2022-08-21T21:38:54.572Z,98828.81
2022-08-21T21:41:32.052Z,98820.75
2022-08-21T21:44:12.571Z,98824.94
2022-08-21T21:46:53.103Z,98821.53
2022-08-21T21:49:35.033Z,98805.88
2022-08-21T21:52:19.025Z,98816.97
2022-08-21T21:55:07.182Z,98819.72
2022-08-21T21:57:55.096Z,98811.97
2022-08-21T22:00:26.639Z,98804.50
2022-08-21T22:03:08.086Z,98796.53
2022-08-21T22:05:56.259Z,98806.47
2022-08-21T22:08:36.903Z,98795.13
2022-08-21T22:11:24.405Z,98782.41
2022-08-21T22:14:05.238Z,98789.19
2022-08-21T22:16:35.440Z,98784.50
2022-08-21T22:19:19.224Z,98778.00
2022-08-21T22:21:53.237Z,98787.38
2022-08-21T22:24:29.075Z,98777.75
2022-08-21T22:27:04.148Z,98786.78
2022-08-21T22:29:45.057Z,98801.72
2022-08-21T22:32:14.098Z,98812.03
2022-08-21T22:34:44.290Z,98811.88
2022-08-21T22:37:22.742Z,98811.88
2022-08-21T22:39:55.562Z,98812.56
2022-08-21T22:42:27.495Z,98795.47
2022-08-21T22:44:57.867Z,98812.25
2022-08-21T22:47:31.756Z,98810.28
2022-08-21T22:50:04.939Z,98809.66
2022-08-21T22:52:35.536Z,98816.50
2022-08-21T22:55:17.741Z,98824.19
2022-08-21T22:58:03.870Z,98825.28
2022-08-21T23:00:52.478Z,98831.78
2022-08-21T23:03:30.415Z,98826.38
2022-08-21T23:06:01.370Z,98829.47
2022-08-21T23:08:35.848Z,98816.81
2022-08-21T23:11:28.521Z,98818.13
2022-08-21T23:13:57.054Z,98827.22
2022-08-21T23:16:47.207Z,98831.66
2022-08-21T23:19:27.539Z,98835.06
2022-08-21T23:22:04.650Z,98838.09
2022-08-21T23:24:49.811Z,98828.66
2022-08-21T23:27:32.551Z,98824.03
2022-08-21T23:30:09.694Z,98822.34
2022-08-21T23:33:00.349Z,98833.38
2022-08-21T23:38:54.699Z,98836.44
2022-08-21T23:41:34.257Z,98815.94
2022-08-21T23:44:25.126Z,98812.25
2022-08-21T23:47:06.017Z,98801.97
2022-08-21T23:49:47.769Z,98804.13
2022-08-21T23:52:26.753Z,98797.31
2022-08-21T23:55:19.061Z,98791.06
2022-08-21T23:57:59.276Z,98789.88
